Fresh Meadows, New York
Current Conditions -  °F | °C
As of 12:51 AM on Wednesday 26 Nov 2014 (Local Time) from KLGA Reporting Station
Overcast Overcast  
Wind Chill: 51°   Ceiling: 17000
Heat Index: 51°   Visibility: 10mi
Dew Point: 29°   Wind: 8mph
Humidity: 43%   Direction: 300°WNW
Pressure: 30.15"   Gusts: NA
Location:  40.73°N, 73.79°W
Report Text: KLGA 260551Z 30007KT 10SM OVC170 11/M02 A3015 RMK AO2 SLP210 T01061017 10117 20106 50009
Loading
Personal Weather Stations






























Interactive Weather Map New forecast layout! Learn more

10-Day Weather Forecast

Advertisements
Track Severe Weather on mobile